キエフ/ボリースピリ の空港の天気 - METARとTAF

ボリースピリ国際空港(キエフ) ( UKBB / KBP ) - ウクライナ ボリスピリ (キエフ近郊)
飛行場実況気象(Metar)
観測時間07/28 15:30 EEST (07/28 12:30 UTC)
風向・風速北北東 6m/s
視程10km以上
天気現象
なし
気温25℃
湿度69%
気圧1005hPa
METARUKBB 281230Z 02006MPS CAVOK 25/19 Q1005 R88/CLRD// TEMPO SCT030CB
過去の天気等 Google飛行場航空写真 Wunderground天気予報

過去48時間のMETAR

飛行場予報(TAF)
発表時間: 7/28 14:01 EEST (7/28 11:01 UTC)
予報対象時間: 28日15時 EEST ~ 29日15時 EEST
風向・風速北 6m/s 瞬間風速 11m/s
視程10km以上
全天の8割程度の雲 雲底高度 910m
28日15時 EEST ~ 28日21時 EEST に一時的に
風向・風速不定 15m/s 瞬間風速 24m/s
視程400m
天気現象強い雷雨ひょう スコール
全天の8割程度の雲 雲底高度 150m
全天の8割程度の積乱雲 雲底高度 610m
28日21時 EEST ~ 28日22時 EEST に徐々に
風向・風速北 4m/s 瞬間風速 9m/s
視程6,000m
全天の8割程度の雲 雲底高度 300m
28日22時 EEST ~ 29日9時 EEST に一時的に
風向・風速不定 9m/s 瞬間風速 14m/s
視程1,500m
天気現象弱い雷雨 もや
全天の8割程度の雲 雲底高度 120m
全天の8割程度の積乱雲 雲底高度 610m
29日9時 EEST ~ 29日10時 EEST に徐々に
風向・風速北北西 7m/s 瞬間風速 12m/s
視程10km以上
全天の8割程度の雲 雲底高度 910m
TAF UKBB 281101Z 2812/2912 36006G11MPS 9999 BKN030
TEMPO 2812/2818 VRB15G24MPS 0400 +TSRAGR SQ BKN005 BKN020CB
BECMG 2818/2819 35004G09MPS 6000 BKN010
TEMPO 2819/2906 VRB09G14MPS 1500 -TSRA BR BKN004 BKN020CB
BECMG 2906/2907 33007G12MPS 9999 BKN030 TX26/2812Z TN15/2903Z